createdAt,value
2023-05-04T00:00:00.806Z,2.38
2023-05-04T00:03:02.213Z,2.43
2023-05-04T00:06:03.726Z,2.83
2023-05-04T00:09:04.998Z,2.53
2023-05-04T00:12:06.284Z,2.75
2023-05-04T00:15:07.574Z,2.90
2023-05-04T00:18:08.910Z,2.77
2023-05-04T00:21:10.228Z,2.55
2023-05-04T00:24:11.510Z,2.80
2023-05-04T00:27:12.792Z,2.72
2023-05-04T00:30:14.089Z,3.10
2023-05-04T00:33:15.373Z,2.97
2023-05-04T00:36:16.677Z,2.42
2023-05-04T00:39:17.956Z,3.00
2023-05-04T00:42:19.241Z,3.00
2023-05-04T00:45:20.548Z,2.70
2023-05-04T00:48:21.840Z,3.47
2023-05-04T00:51:23.145Z,2.92
2023-05-04T00:54:24.457Z,3.03
2023-05-04T00:57:25.793Z,3.17
2023-05-04T01:00:27.102Z,3.03
2023-05-04T01:03:28.430Z,2.80
2023-05-04T01:06:29.784Z,3.00
2023-05-04T01:09:31.074Z,3.40
2023-05-04T01:12:32.423Z,3.13
2023-05-04T01:15:33.768Z,3.30
2023-05-04T01:18:35.086Z,3.33
2023-05-04T01:21:36.366Z,3.50
2023-05-04T01:24:37.702Z,3.15
2023-05-04T01:27:39.017Z,3.60
2023-05-04T01:30:40.330Z,3.40
2023-05-04T01:33:41.645Z,3.27
2023-05-04T01:36:42.954Z,3.47
2023-05-04T01:39:44.252Z,3.47
2023-05-04T01:42:45.559Z,3.20
2023-05-04T01:45:46.853Z,3.88
2023-05-04T01:48:48.192Z,3.37
2023-05-04T01:51:49.529Z,3.50
2023-05-04T01:54:50.859Z,3.80
2023-05-04T01:57:52.156Z,3.47
2023-05-04T02:00:53.448Z,3.80
2023-05-04T02:03:54.889Z,3.73
2023-05-04T02:06:56.292Z,3.70
2023-05-04T02:09:57.612Z,4.32
2023-05-04T02:12:58.973Z,3.35
2023-05-04T02:16:00.355Z,3.67
2023-05-04T02:19:01.689Z,3.33
2023-05-04T02:22:02.997Z,3.60
2023-05-04T02:25:04.313Z,3.30
2023-05-04T02:28:05.623Z,3.15
2023-05-04T02:31:06.947Z,3.78
2023-05-04T02:34:08.284Z,4.17
2023-05-04T02:37:09.604Z,3.50
2023-05-04T02:40:10.913Z,4.00
2023-05-04T02:43:12.192Z,3.78
2023-05-04T02:46:13.519Z,3.88
2023-05-04T02:49:14.825Z,3.43
2023-05-04T02:52:16.107Z,4.25
2023-05-04T02:55:17.398Z,3.75
2023-05-04T02:58:18.712Z,4.57
2023-05-04T03:01:20.069Z,3.72
2023-05-04T03:04:21.528Z,4.17
2023-05-04T03:07:22.862Z,3.95
2023-05-04T03:10:24.196Z,4.13
2023-05-04T03:13:25.481Z,3.88
2023-05-04T03:16:26.802Z,4.32
2023-05-04T03:19:28.150Z,4.00
2023-05-04T03:22:29.454Z,4.25
2023-05-04T03:25:30.809Z,4.60
2023-05-04T03:28:32.096Z,4.00
2023-05-04T03:31:33.467Z,4.05
2023-05-04T03:34:34.833Z,4.60
2023-05-04T03:37:36.221Z,3.88
2023-05-04T03:40:37.552Z,4.32
2023-05-04T03:43:40.093Z,3.90
2023-05-04T03:46:41.380Z,4.22
2023-05-04T03:49:42.706Z,4.33
2023-05-04T03:52:43.994Z,4.22
2023-05-04T03:55:45.323Z,4.40
2023-05-04T03:58:46.589Z,4.22
2023-05-04T04:01:47.908Z,4.38
2023-05-04T04:04:49.194Z,4.40
2023-05-04T04:07:50.499Z,4.18
2023-05-04T04:10:51.801Z,4.60
2023-05-04T04:13:53.111Z,4.00
2023-05-04T04:16:54.435Z,4.55
2023-05-04T04:19:55.775Z,3.83
2023-05-04T04:22:57.085Z,4.43
2023-05-04T04:25:58.396Z,4.25
2023-05-04T04:28:59.711Z,3.63
2023-05-04T04:32:01.015Z,4.63
2023-05-04T04:35:02.337Z,4.23
2023-05-04T04:38:03.880Z,4.38
2023-05-04T04:41:05.432Z,4.57
2023-05-04T04:44:06.750Z,5.13
2023-05-04T04:47:08.042Z,4.70
2023-05-04T04:50:09.358Z,4.60
2023-05-04T04:53:10.629Z,4.35
2023-05-04T04:56:11.930Z,4.70
2023-05-04T04:59:13.208Z,4.40
2023-05-04T05:02:14.523Z,4.68
2023-05-04T05:05:15.897Z,4.47
2023-05-04T05:08:17.239Z,4.47
2023-05-04T05:11:18.543Z,4.53
2023-05-04T05:14:19.867Z,16.42
2023-05-04T05:17:21.228Z,12.98
2023-05-04T05:20:22.625Z,9.97
2023-05-04T05:23:23.927Z,7.93
2023-05-04T05:26:25.226Z,6.57
2023-05-04T05:29:26.537Z,6.65
2023-05-04T05:32:27.863Z,7.28
2023-05-04T05:35:29.195Z,4.97
2023-05-04T05:38:30.476Z,5.40
2023-05-04T05:41:31.784Z,5.10
2023-05-04T05:44:33.078Z,4.55
2023-05-04T05:47:34.405Z,4.97
2023-05-04T05:50:35.773Z,4.50
2023-05-04T05:53:37.073Z,4.60
2023-05-04T05:56:38.381Z,5.75
2023-05-04T05:59:39.696Z,8.50
2023-05-04T06:02:41.044Z,9.68
2023-05-04T06:05:42.419Z,6.60
2023-05-04T06:08:43.741Z,7.03
2023-05-04T06:11:45.067Z,5.65
2023-05-04T06:14:46.365Z,6.25
2023-05-04T06:17:47.722Z,5.93
2023-05-04T06:20:49.159Z,5.73
2023-05-04T06:23:50.474Z,6.25
2023-05-04T06:26:51.763Z,5.22
2023-05-04T06:29:53.055Z,5.00
2023-05-04T06:32:54.461Z,7.22
2023-05-04T06:35:55.864Z,5.60
2023-05-04T06:38:57.200Z,5.80
2023-05-04T06:41:58.581Z,5.35
2023-05-04T06:44:59.916Z,5.07
2023-05-04T06:48:01.222Z,5.20
2023-05-04T06:51:03.201Z,5.07
2023-05-04T06:54:04.608Z,5.47
2023-05-04T06:57:05.933Z,6.00
2023-05-04T07:00:07.398Z,4.68
2023-05-04T07:03:08.950Z,5.00
2023-05-04T07:06:10.317Z,4.77
2023-05-04T07:09:11.646Z,5.03
2023-05-04T07:12:12.935Z,4.65
2023-05-04T07:15:14.276Z,4.47
2023-05-04T07:18:15.602Z,4.65
2023-05-04T07:21:27.428Z,4.67
2023-05-04T07:24:29.369Z,4.95
2023-05-04T07:27:30.669Z,4.88
2023-05-04T07:30:32.000Z,5.20
2023-05-04T07:33:33.304Z,4.70
2023-05-04T07:36:34.680Z,4.87
2023-05-04T07:39:36.028Z,4.32
2023-05-04T07:42:37.356Z,4.68
2023-05-04T07:45:38.661Z,5.03
2023-05-04T07:48:39.973Z,4.57
2023-05-04T07:51:41.272Z,4.27
2023-05-04T07:54:42.593Z,5.18
2023-05-04T07:57:43.890Z,8.98
2023-05-04T08:00:45.200Z,7.20
2023-05-04T08:03:46.471Z,6.63
2023-05-04T08:06:47.783Z,5.93
2023-05-04T08:09:49.126Z,5.65
2023-05-04T08:12:50.449Z,6.30
2023-05-04T08:15:51.787Z,5.85
2023-05-04T08:18:53.313Z,5.82
2023-05-04T08:21:54.630Z,6.63
2023-05-04T08:24:56.126Z,4.75
2023-05-04T08:27:57.441Z,5.43
2023-05-04T08:30:58.731Z,4.78
2023-05-04T08:34:00.130Z,4.35
2023-05-04T08:37:01.453Z,4.30
2023-05-04T08:40:02.805Z,3.97
2023-05-04T08:43:04.121Z,4.95
2023-05-04T08:46:05.451Z,5.50
2023-05-04T08:49:06.852Z,4.47
2023-05-04T08:52:08.153Z,4.40
2023-05-04T08:55:09.465Z,4.03
2023-05-04T08:58:10.781Z,4.88
2023-05-04T09:01:12.129Z,4.30
2023-05-04T09:04:13.463Z,4.10
2023-05-04T09:07:14.791Z,4.47
2023-05-04T09:10:16.102Z,4.80
2023-05-04T09:13:17.518Z,5.07
2023-05-04T09:16:18.892Z,5.32
2023-05-04T09:19:20.360Z,4.07
2023-05-04T09:22:21.694Z,3.70
2023-05-04T09:25:23.033Z,3.78
2023-05-04T09:28:24.351Z,4.22
2023-05-04T09:31:25.688Z,3.72
2023-05-04T09:34:27.039Z,3.50
2023-05-04T09:37:28.361Z,3.63
2023-05-04T09:40:29.663Z,3.80
2023-05-04T09:43:30.969Z,4.93
2023-05-04T09:46:32.346Z,3.85
2023-05-04T09:49:33.795Z,4.78
2023-05-04T09:52:35.104Z,3.80
2023-05-04T09:55:36.413Z,4.85
2023-05-04T09:58:37.690Z,4.32
2023-05-04T10:01:39.108Z,3.97
2023-05-04T10:04:40.455Z,3.72
2023-05-04T10:07:41.758Z,3.77
2023-05-04T10:10:43.088Z,4.40
2023-05-04T10:13:44.424Z,5.05
2023-05-04T10:16:45.733Z,5.97
2023-05-04T10:19:47.414Z,4.57
2023-05-04T10:22:48.748Z,5.07
2023-05-04T10:25:50.068Z,5.45
2023-05-04T10:28:51.367Z,5.38
2023-05-04T10:31:52.765Z,4.55
2023-05-04T10:34:55.134Z,5.10
2023-05-04T10:37:58.235Z,3.87
2023-05-04T10:40:59.559Z,4.40
2023-05-04T10:44:00.861Z,4.20
2023-05-04T10:47:02.181Z,4.50
2023-05-04T10:50:03.659Z,3.75
2023-05-04T10:53:05.016Z,3.87
2023-05-04T10:56:06.329Z,3.80
2023-05-04T10:59:07.624Z,4.22
2023-05-04T11:02:08.999Z,5.13
2023-05-04T11:05:10.353Z,4.32
2023-05-04T11:08:11.667Z,4.67
2023-05-04T11:11:13.001Z,5.45
2023-05-04T11:14:14.342Z,5.38
2023-05-04T11:20:19.824Z,4.30
2023-05-04T11:23:21.137Z,4.50
2023-05-04T11:26:22.451Z,4.47
2023-05-04T11:29:23.762Z,5.07
2023-05-04T11:32:25.078Z,3.95
2023-05-04T11:35:26.367Z,4.05
2023-05-04T11:38:27.679Z,4.03
2023-05-04T11:41:28.967Z,3.08
2023-05-04T11:44:30.273Z,4.03
2023-05-04T11:47:31.594Z,3.72
2023-05-04T11:50:32.932Z,3.95
2023-05-04T11:53:34.226Z,3.90
2023-05-04T11:56:35.540Z,3.42
2023-05-04T11:59:36.831Z,3.63
2023-05-04T12:02:38.228Z,3.78
2023-05-04T12:05:39.614Z,3.38
2023-05-04T12:08:40.954Z,3.83
2023-05-04T12:11:42.309Z,3.47
2023-05-04T12:14:43.609Z,3.83
2023-05-04T12:17:44.961Z,3.05
2023-05-04T12:20:46.339Z,3.63
2023-05-04T12:23:47.653Z,3.10
2023-05-04T12:26:49.255Z,3.33
2023-05-04T12:29:50.608Z,3.65
2023-05-04T12:32:51.919Z,4.00
2023-05-04T12:35:53.255Z,4.15
2023-05-04T12:38:54.558Z,3.40
2023-05-04T12:41:55.876Z,3.15
2023-05-04T12:44:57.146Z,4.13
2023-05-04T12:47:58.483Z,3.53
2023-05-04T12:51:00.362Z,3.88
2023-05-04T12:54:01.746Z,4.07
2023-05-04T12:57:03.068Z,3.65
2023-05-04T13:00:04.400Z,4.10
2023-05-04T13:03:05.802Z,3.83
2023-05-04T13:06:07.189Z,3.92
2023-05-04T13:09:08.480Z,4.87
2023-05-04T13:12:09.782Z,4.70
2023-05-04T13:15:11.094Z,4.97
2023-05-04T13:18:12.401Z,4.20
2023-05-04T13:21:13.740Z,4.25
2023-05-04T13:24:15.062Z,3.93
2023-05-04T13:27:16.357Z,4.63
2023-05-04T13:30:17.638Z,4.18
2023-05-04T13:33:29.020Z,3.67
2023-05-04T13:36:31.720Z,3.75
2023-05-04T13:39:33.034Z,5.33
2023-05-04T13:42:36.854Z,14.90
2023-05-04T13:45:38.609Z,10.13
2023-05-04T13:48:39.924Z,11.02
2023-05-04T13:51:41.249Z,10.85
2023-05-04T13:54:42.544Z,8.67
2023-05-04T13:57:43.851Z,7.97
2023-05-04T14:00:45.255Z,7.90
2023-05-04T14:03:46.569Z,5.45
2023-05-04T14:06:47.865Z,6.03
2023-05-04T14:09:49.408Z,5.07
2023-05-04T14:12:50.778Z,5.85
2023-05-04T14:15:52.097Z,4.40
2023-05-04T14:18:53.416Z,3.92
2023-05-04T14:21:54.699Z,4.35
2023-05-04T14:24:56.002Z,4.33
2023-05-04T14:27:57.309Z,4.72
2023-05-04T14:30:58.619Z,4.32
2023-05-04T14:33:59.913Z,4.30
2023-05-04T14:37:01.229Z,5.07
2023-05-04T14:40:02.529Z,4.63
2023-05-04T14:43:03.859Z,5.97
2023-05-04T14:46:05.210Z,5.18
2023-05-04T14:49:06.569Z,4.22
2023-05-04T14:52:07.900Z,3.90
2023-05-04T14:55:09.190Z,4.30
2023-05-04T14:58:10.490Z,3.70
2023-05-04T15:01:11.853Z,4.68
2023-05-04T15:04:13.229Z,4.22
2023-05-04T15:07:14.531Z,4.00
2023-05-04T15:10:15.833Z,4.20
2023-05-04T15:13:17.164Z,4.53
2023-05-04T15:16:18.682Z,4.18
2023-05-04T15:19:20.081Z,3.80
2023-05-04T15:22:21.381Z,4.50
2023-05-04T15:25:22.677Z,4.23
2023-05-04T15:28:23.983Z,3.90
2023-05-04T15:31:25.371Z,4.60
2023-05-04T15:34:26.731Z,3.92
2023-05-04T15:37:28.027Z,3.70
2023-05-04T15:40:29.355Z,4.20
2023-05-04T15:43:30.662Z,3.55
2023-05-04T15:46:32.023Z,3.72
2023-05-04T15:49:33.332Z,4.68
2023-05-04T15:52:34.620Z,3.60
2023-05-04T15:55:35.910Z,3.80
2023-05-04T15:58:37.236Z,4.13
2023-05-04T16:01:38.637Z,4.03
2023-05-04T16:04:39.972Z,3.63
2023-05-04T16:07:41.245Z,3.85
2023-05-04T16:10:42.566Z,3.90
2023-05-04T16:13:43.872Z,3.00
2023-05-04T16:16:45.322Z,4.18
2023-05-04T16:19:46.681Z,3.30
2023-05-04T16:22:47.982Z,3.90
2023-05-04T16:25:49.271Z,3.63
2023-05-04T16:28:50.597Z,3.83
2023-05-04T16:31:51.892Z,3.85
2023-05-04T16:34:53.230Z,4.10
2023-05-04T16:37:54.518Z,3.40
2023-05-04T16:40:55.838Z,3.67
2023-05-04T16:43:57.145Z,3.65
2023-05-04T16:46:58.468Z,3.45
2023-05-04T16:49:59.782Z,3.67
2023-05-04T16:53:01.103Z,3.17
2023-05-04T16:56:02.451Z,2.73
2023-05-04T16:59:03.777Z,3.10
2023-05-04T17:02:05.087Z,3.22
2023-05-04T17:05:06.483Z,3.30
2023-05-04T17:08:07.858Z,3.35
2023-05-04T17:11:09.145Z,2.83
2023-05-04T17:14:10.470Z,2.78
2023-05-04T17:17:11.772Z,3.88
2023-05-04T17:20:13.066Z,3.63
2023-05-04T17:23:14.376Z,3.63
2023-05-04T17:26:15.691Z,3.17
2023-05-04T17:29:16.983Z,3.17
2023-05-04T17:32:18.466Z,3.10
2023-05-04T17:35:25.808Z,3.63
2023-05-04T17:38:27.882Z,4.63
2023-05-04T17:41:29.251Z,3.30
2023-05-04T17:44:30.568Z,3.90
2023-05-04T17:47:31.948Z,4.43
2023-05-04T17:50:33.299Z,3.47
2023-05-04T17:53:34.621Z,3.65
2023-05-04T17:56:35.918Z,3.73
2023-05-04T17:59:37.205Z,3.75
2023-05-04T18:02:38.568Z,4.00
2023-05-04T18:05:39.921Z,4.18
2023-05-04T18:08:41.228Z,3.65
2023-05-04T18:11:42.534Z,3.63
2023-05-04T18:14:43.878Z,3.70
2023-05-04T18:17:45.224Z,3.55
2023-05-04T18:20:46.842Z,3.63
2023-05-04T18:23:48.202Z,3.72
2023-05-04T18:26:49.513Z,3.80
2023-05-04T18:29:51.113Z,4.00
2023-05-04T18:32:52.519Z,4.18
2023-05-04T18:35:54.284Z,3.72
2023-05-04T18:38:55.649Z,3.42
2023-05-04T18:41:56.952Z,3.57
2023-05-04T18:44:58.614Z,3.83
2023-05-04T18:48:00.040Z,3.67
2023-05-04T18:51:01.424Z,3.60
2023-05-04T18:54:02.857Z,3.35
2023-05-04T18:57:04.239Z,3.20
2023-05-04T19:00:06.344Z,3.40
2023-05-04T19:03:08.421Z,3.65
2023-05-04T19:06:09.911Z,3.05
2023-05-04T19:09:11.286Z,3.60
2023-05-04T19:12:12.612Z,3.53
2023-05-04T19:15:13.917Z,4.07
2023-05-04T19:18:15.230Z,3.45
2023-05-04T19:21:16.539Z,3.20
2023-05-04T19:24:17.877Z,3.85
2023-05-04T19:27:19.274Z,3.97
2023-05-04T19:30:20.594Z,3.55
2023-05-04T19:33:23.221Z,3.65
2023-05-04T19:36:24.599Z,3.65
2023-05-04T19:39:25.929Z,3.45
2023-05-04T19:42:27.249Z,3.60
2023-05-04T19:45:28.599Z,3.90
2023-05-04T19:48:30.197Z,3.50
2023-05-04T19:51:31.563Z,3.40
2023-05-04T19:54:33.191Z,3.53
2023-05-04T19:57:34.543Z,3.70
2023-05-04T20:00:35.893Z,4.10
2023-05-04T20:03:37.250Z,3.95
2023-05-04T20:06:38.557Z,3.22
2023-05-04T20:09:39.860Z,4.03
2023-05-04T20:12:41.173Z,4.07
2023-05-04T20:15:42.492Z,3.92
2023-05-04T20:18:43.777Z,3.65
2023-05-04T20:21:45.086Z,3.60
2023-05-04T20:24:46.430Z,3.95
2023-05-04T20:27:47.756Z,3.60
2023-05-04T20:30:49.064Z,3.60
2023-05-04T20:33:50.407Z,3.53
2023-05-04T20:36:51.710Z,3.67
2023-05-04T20:39:53.068Z,3.33
2023-05-04T20:42:54.374Z,3.33
2023-05-04T20:45:55.764Z,3.67
2023-05-04T20:48:57.114Z,3.78
2023-05-04T20:51:58.458Z,3.55
2023-05-04T20:54:59.767Z,3.42
2023-05-04T20:58:01.074Z,4.00
2023-05-04T21:01:02.508Z,3.97
2023-05-04T21:04:03.974Z,4.00
2023-05-04T21:07:05.335Z,3.58
2023-05-04T21:10:06.755Z,3.28
2023-05-04T21:13:08.365Z,3.40
2023-05-04T21:16:09.738Z,3.90
2023-05-04T21:19:11.084Z,3.67
2023-05-04T21:22:12.384Z,4.20
2023-05-04T21:25:13.711Z,3.72
2023-05-04T21:28:15.042Z,3.63
2023-05-04T21:31:16.395Z,3.85
2023-05-04T21:34:17.710Z,4.25
2023-05-04T21:37:19.008Z,4.25
2023-05-04T21:40:20.313Z,3.72
2023-05-04T21:43:21.625Z,4.47
2023-05-04T21:46:22.997Z,4.00
2023-05-04T21:49:24.390Z,3.90
2023-05-04T21:52:25.697Z,3.22
2023-05-04T21:55:27.000Z,3.72
2023-05-04T21:58:28.310Z,3.37
2023-05-04T22:01:29.708Z,3.88
2023-05-04T22:04:31.014Z,4.10
2023-05-04T22:07:32.634Z,3.80
2023-05-04T22:10:34.282Z,4.53
2023-05-04T22:13:35.567Z,4.20
2023-05-04T22:16:36.897Z,3.75
2023-05-04T22:19:38.248Z,4.03
2023-05-04T22:22:39.530Z,3.50
2023-05-04T22:25:40.850Z,3.97
2023-05-04T22:28:42.168Z,3.27
2023-05-04T22:31:43.481Z,3.72
2023-05-04T22:34:44.826Z,4.00
2023-05-04T22:37:46.128Z,3.88
2023-05-04T22:40:47.415Z,3.65
2023-05-04T22:43:48.697Z,3.70
2023-05-04T22:46:50.027Z,3.25
2023-05-04T22:49:51.330Z,5.00
2023-05-04T22:52:52.671Z,3.85
2023-05-04T22:55:54.003Z,4.18
2023-05-04T22:58:55.306Z,3.77
2023-05-04T23:01:56.598Z,3.30
2023-05-04T23:04:57.947Z,3.58
2023-05-04T23:07:59.252Z,4.10
2023-05-04T23:11:00.560Z,4.07
2023-05-04T23:14:01.873Z,3.27
2023-05-04T23:17:03.237Z,3.85
2023-05-04T23:20:04.510Z,3.90
2023-05-04T23:23:05.823Z,3.55
2023-05-04T23:26:07.108Z,3.70
2023-05-04T23:29:08.420Z,3.57
2023-05-04T23:32:09.928Z,3.75
2023-05-04T23:35:11.322Z,3.88
2023-05-04T23:38:12.633Z,3.55
2023-05-04T23:41:13.948Z,3.30
2023-05-04T23:44:15.258Z,3.27
2023-05-04T23:47:16.576Z,3.53
2023-05-04T23:50:17.891Z,3.67
2023-05-04T23:53:19.191Z,3.13
2023-05-04T23:56:20.475Z,3.28
2023-05-04T23:59:21.799Z,3.30
